Time;durP1;ratioP1;P1;durP2;ratioP2;P2;SDS_P1;SDS_P2;PMS_P1;PMS_P2;Temp;Humidity;BMP_temperature;BMP_pressure;BME280_temperature;BME280_humidity;BME280_pressure;Samples;Min_cycle;Max_cycle;Signal;HPM_P1;HPM_P2
2022/11/08 16:20:32;;;;;;;23.40;13.73;;;;;;;10.98;100.00;63133.09;5130306;27;20827;-77
2022/11/08 16:23:01;;;;;;;18.63;12.48;;;;;;;10.92;100.00;63126.88;5127830;28;20238;-75
2022/11/08 16:25:30;;;;;;;17.55;12.57;;;;;;;10.95;100.00;63124.88;5144005;27;20410;-76
2022/11/08 16:27:59;;;;;;;17.65;12.48;;;;;;;10.86;100.00;63117.59;5131758;27;20202;-75
2022/11/08 16:30:30;;;;;;;21.00;13.18;;;;;;;10.80;100.00;63111.38;5121548;28;20203;-75
2022/11/08 16:32:57;;;;;;;16.75;12.30;;;;;;;10.83;100.00;63115.00;5132425;28;20413;-76
2022/11/08 16:35:25;;;;;;;19.75;13.32;;;;;;;10.87;100.00;63118.63;5124301;28;20200;-76
2022/11/08 16:37:53;;;;;;;20.13;13.50;;;;;;;10.86;100.00;63120.13;5153077;27;20198;-76
2022/11/08 16:40:21;;;;;;;22.42;13.93;;;;;;;10.93;100.00;63127.91;5149418;27;20226;-76
2022/11/08 16:42:50;;;;;;;20.08;13.65;;;;;;;10.87;100.00;63121.69;5138423;27;20202;-76
2022/11/08 16:45:18;;;;;;;19.77;13.43;;;;;;;10.91;100.00;63125.31;5136922;27;20200;-76
2022/11/08 16:47:47;;;;;;;17.60;12.20;;;;;;;10.88;100.00;63117.13;5131106;28;20203;-76
2022/11/08 16:50:17;;;;;;;17.67;12.82;;;;;;;10.90;100.00;63119.19;5122879;28;20199;-77
2022/11/08 16:52:44;;;;;;;20.98;13.43;;;;;;;10.90;100.00;63124.81;5121621;28;20196;-76
2022/11/08 16:55:15;;;;;;;18.98;13.38;;;;;;;10.93;100.00;63127.91;5136192;28;20467;-75
2022/11/08 16:57:42;;;;;;;16.08;12.30;;;;;;;10.96;100.00;63128.47;5139993;27;20389;-77
2022/11/08 17:00:12;;;;;;;22.00;14.27;;;;;;;10.96;100.00;63125.41;5120583;28;20227;-76
2022/11/08 17:02:41;;;;;;;22.83;14.20;;;;;;;10.92;100.00;63119.25;5123581;28;20196;-76
2022/11/08 17:05:16;;;;;;;18.98;13.10;;;;;;;10.94;100.00;63123.34;5139812;27;20198;-76
2022/11/08 17:07:42;;;;;;;18.95;13.60;;;;;;;10.94;100.00;63121.28;5121488;28;20424;-76
2022/11/08 17:10:14;;;;;;;20.23;14.48;;;;;;;10.89;100.00;63123.25;5124563;28;20221;-76
2022/11/08 17:12:41;;;;;;;19.25;14.20;;;;;;;10.93;100.00;63122.81;5133323;28;20447;-76
2022/11/08 17:15:11;;;;;;;17.60;13.18;;;;;;;10.94;100.00;63130.97;5137996;28;20202;-77
2022/11/08 17:17:38;;;;;;;17.20;13.13;;;;;;;10.99;100.00;63131.06;5140084;27;20290;-79
2022/11/08 17:20:06;;;;;;;22.20;14.80;;;;;;;11.04;100.00;63136.22;5141654;27;20250;-77
2022/11/08 17:22:33;;;;;;;19.95;14.85;;;;;;;11.04;100.00;63136.22;5137669;27;20201;-77
2022/11/08 17:25:00;;;;;;;23.10;16.13;;;;;;;11.13;100.00;63146.06;5140343;27;20211;-77
2022/11/08 17:27:28;;;;;;;24.88;17.13;;;;;;;11.17;100.00;63150.22;5144233;27;20221;-77
2022/11/08 17:29:55;;;;;;;21.60;15.38;;;;;;;11.16;100.00;63146.09;5136547;28;20215;-77
2022/11/08 17:32:24;;;;;;;24.48;15.18;;;;;;;11.22;100.00;63150.28;5125754;28;20218;-77
2022/11/08 17:34:54;;;;;;;23.05;16.90;;;;;;;11.24;100.00;63154.38;5126226;28;20215;-77
2022/11/08 17:37:21;;;;;;;25.17;17.15;;;;;;;11.31;100.00;63159.09;5126477;28;20196;-77
2022/11/08 17:39:48;;;;;;;27.55;18.20;;;;;;;11.34;100.00;63162.19;5119785;28;20479;-76
2022/11/08 17:42:15;;;;;;;23.98;15.63;;;;;;;11.36;100.00;63169.38;5123598;28;20476;-77
2022/11/08 17:44:43;;;;;;;29.10;18.67;;;;;;;11.40;100.00;63179.13;5126103;28;20211;-77
2022/11/08 17:47:10;;;;;;;27.35;16.08;;;;;;;11.52;100.00;63180.84;5129755;28;20203;-78
2022/11/08 17:49:37;;;;;;;21.48;15.60;;;;;;;11.55;100.00;63189.56;5125670;28;20585;-78
2022/11/08 17:52:04;;;;;;;25.92;16.60;;;;;;;11.65;100.00;63199.41;5125556;28;20191;-77
2022/11/08 17:54:30;;;;;;;27.98;17.45;;;;;;;11.67;100.00;63200.97;5123386;28;20219;-77
2022/11/08 17:56:57;;;;;;;23.98;16.55;;;;;;;11.74;100.00;63208.75;5126515;27;20200;-77
2022/11/08 17:59:24;;;;;;;25.80;17.15;;;;;;;11.79;100.00;63208.81;5124269;28;20223;-77
2022/11/08 18:01:52;;;;;;;20.30;14.73;;;;;;;11.84;100.00;63218.59;5124479;28;20191;-76
2022/11/08 18:04:19;;;;;;;22.52;15.02;;;;;;;11.85;100.00;63217.59;5127317;28;20219;-77
2022/11/08 18:06:46;;;;;;;23.38;15.70;;;;;;;11.89;100.00;63221.75;5125357;28;20254;-77
2022/11/08 18:09:13;;;;;;;19.95;13.55;;;;;;;11.90;100.00;63222.25;5125301;28;20211;-77
2022/11/08 18:11:46;;;;;;;18.20;13.63;;;;;;;11.89;100.00;63221.75;5125396;28;20191;-77
2022/11/08 18:14:13;;;;;;;21.88;14.30;;;;;;;11.88;100.00;63218.16;5125726;27;20551;-77
2022/11/08 18:16:40;;;;;;;18.60;13.52;;;;;;;11.85;100.00;63217.09;5124374;28;20203;-78
2022/11/08 18:19:08;;;;;;;19.90;14.38;;;;;;;11.81;100.00;63215.47;5127868;28;20284;-77
2022/11/08 18:21:35;;;;;;;22.40;15.60;;;;;;;11.76;100.00;63210.81;5125988;28;20204;-78
2022/11/08 18:24:04;;;;;;;19.38;13.07;;;;;;;11.76;100.00;63213.38;5120606;28;20227;-79
2022/11/08 18:26:33;;;;;;;20.48;13.35;;;;;;;11.71;100.00;63203.09;5122691;28;20221;-77
2022/11/08 18:29:06;;;;;;;17.95;12.95;;;;;;;11.68;100.00;63200.00;5125916;28;20402;-77
2022/11/08 18:31:33;;;;;;;17.08;13.82;;;;;;;11.67;100.00;63201.50;5126925;28;20488;-76
2022/11/08 18:34:00;;;;;;;18.30;13.68;;;;;;;11.55;100.00;63189.56;5120610;28;20211;-77
2022/11/08 18:36:31;;;;;;;18.73;13.90;;;;;;;11.50;100.00;63183.88;5125036;28;20216;-78
2022/11/08 18:39:00;;;;;;;19.50;14.65;;;;;;;11.47;100.00;63183.84;5107142;28;20231;-77
2022/11/08 18:41:29;;;;;;;19.50;14.20;;;;;;;11.44;100.00;63177.66;5111484;28;20195;-77
2022/11/08 18:43:58;;;;;;;15.82;11.98;;;;;;;11.36;100.00;63171.91;5122513;28;20314;-77
2022/11/08 18:46:27;;;;;;;18.05;13.25;;;;;;;11.25;100.00;63158.50;5122173;28;20202;-77
2022/11/08 18:48:54;;;;;;;16.63;12.57;;;;;;;11.15;100.00;63143.03;5107534;28;20220;-76
2022/11/08 18:51:23;;;;;;;19.85;12.55;;;;;;;11.07;100.00;63139.84;5115694;28;20208;-77
2022/11/08 18:53:51;;;;;;;18.52;13.25;;;;;;;11.04;100.00;63136.75;5115582;28;20238;-77
2022/11/08 18:56:21;;;;;;;17.42;12.10;;;;;;;11.00;100.00;63132.09;5119610;28;20237;-78
2022/11/08 18:58:51;;;;;;;17.63;12.48;;;;;;;11.01;100.00;63136.19;5108479;28;20243;-78
2022/11/08 19:01:19;;;;;;;15.65;11.82;;;;;;;10.70;100.00;63104.09;5118427;28;20214;-77
2022/11/08 19:03:47;;;;;;;22.65;13.63;;;;;;;10.56;100.00;63081.97;5129187;28;20215;-77
2022/11/08 19:06:18;;;;;;;19.30;13.27;;;;;;;10.64;100.00;63092.78;5115286;28;20204;-77
2022/11/08 19:08:46;;;;;;;19.80;12.77;;;;;;;10.66;100.00;63099.44;5121155;28;20278;-77
2022/11/08 19:11:19;;;;;;;17.60;12.52;;;;;;;10.67;100.00;63097.91;5108138;28;20267;-78
2022/11/08 19:13:46;;;;;;;16.95;13.00;;;;;;;10.69;100.00;63100.00;5112861;28;20504;-77
2022/11/08 19:16:17;;;;;;;16.90;12.70;;;;;;;10.69;100.00;63097.44;5125891;28;20202;-78
2022/11/08 19:18:45;;;;;;;19.63;12.85;;;;;;;10.38;100.00;63065.88;5125920;28;20235;-77
2022/11/08 19:21:14;;;;;;;16.15;12.45;;;;;;;10.34;100.00;63062.25;5117184;28;20219;-76
2022/11/08 19:23:42;;;;;;;17.70;12.38;;;;;;;10.32;100.00;63062.22;5122399;28;20223;-77
2022/11/08 19:26:12;;;;;;;18.35;13.50;;;;;;;10.35;100.00;63067.88;5112633;28;20464;-77
2022/11/08 19:28:43;;;;;;;19.27;14.23;;;;;;;10.31;100.00;63061.19;5109238;28;20228;-77
2022/11/08 19:31:11;;;;;;;15.68;12.32;;;;;;;10.33;100.00;63060.72;5115238;28;20199;-76
2022/11/08 19:33:41;;;;;;;17.23;12.57;;;;;;;10.36;100.00;63066.88;5127719;28;20655;-76
2022/11/08 19:36:13;;;;;;;17.83;13.10;;;;;;;10.33;100.00;63065.81;5112572;28;20205;-78
2022/11/08 19:38:41;;;;;;;20.30;13.73;;;;;;;10.33;100.00;63063.25;5115426;28;20276;-75
2022/11/08 19:41:10;;;;;;;18.55;13.68;;;;;;;10.28;100.00;63055.53;5116306;28;20535;-76
2022/11/08 19:43:39;;;;;;;20.95;14.65;;;;;;;10.26;100.00;63053.47;5118435;28;20216;-75
2022/11/08 19:46:12;;;;;;;24.02;14.70;;;;;;;10.37;100.00;63067.91;5106897;28;20196;-78
2022/11/08 19:48:41;;;;;;;24.75;14.95;;;;;;;10.44;100.00;63070.06;5106687;28;20222;-77
2022/11/08 19:51:12;;;;;;;21.05;15.85;;;;;;;10.46;100.00;63074.16;5105780;28;20195;-76
2022/11/08 19:53:42;;;;;;;23.38;14.68;;;;;;;10.48;100.00;63079.28;5113874;28;20229;-76
2022/11/08 19:56:11;;;;;;;21.25;15.50;;;;;;;10.43;100.00;63076.66;5126785;28;20196;-77
2022/11/08 19:58:38;;;;;;;23.15;15.63;;;;;;;10.52;100.00;63080.38;5124904;28;20249;-76
2022/11/08 20:01:13;;;;;;;23.77;15.65;;;;;;;10.59;100.00;63087.09;5125242;28;20226;-76
2022/11/08 20:03:40;;;;;;;21.33;15.07;;;;;;;10.64;100.00;63097.88;5125826;28;20210;-77
2022/11/08 20:06:08;;;;;;;21.70;15.63;;;;;;;10.69;100.00;63094.91;5125442;28;20249;-77
2022/11/08 20:08:35;;;;;;;27.10;16.75;;;;;;;10.70;100.00;63101.53;5127501;28;20221;-76
2022/11/08 20:11:11;;;;;;;23.98;16.40;;;;;;;10.74;100.00;63103.13;5114502;28;20211;-76
2022/11/08 20:13:42;;;;;;;23.85;17.25;;;;;;;10.75;100.00;63106.22;5117320;28;20219;-75
2022/11/08 20:16:18;;;;;;;24.10;16.73;;;;;;;10.79;100.00;63112.88;5127127;28;20199;-76
2022/11/08 20:18:46;;;;;;;27.27;15.32;;;;;;;10.79;100.00;63115.97;5126158;28;20285;-76
2022/11/08 20:21:14;;;;;;;22.60;15.57;;;;;;;10.75;100.00;63103.66;5106057;28;20227;-76
2022/11/08 20:23:43;;;;;;;25.83;17.27;;;;;;;10.83;100.00;63109.91;5108416;28;20235;-77
2022/11/08 20:26:15;;;;;;;25.00;16.98;;;;;;;10.81;100.00;63112.94;5109730;28;20196;-78
2022/11/08 20:28:42;;;;;;;24.45;15.95;;;;;;;10.82;100.00;63113.47;5126753;28;20268;-76
2022/11/08 20:31:14;;;;;;;22.17;16.65;;;;;;;10.80;100.00;63108.84;5123560;28;20199;-77
2022/11/08 20:33:45;;;;;;;25.48;17.40;;;;;;;10.81;100.00;63112.41;5127843;28;20227;-79
2022/11/08 20:36:15;;;;;;;26.85;17.05;;;;;;;10.85;100.00;63121.66;5129145;28;20196;-77
2022/11/08 20:38:44;;;;;;;31.40;18.25;;;;;;;10.85;100.00;63119.09;5126810;28;20565;-76
2022/11/08 20:41:13;;;;;;;32.17;18.17;;;;;;;10.82;100.00;63116.50;5124565;28;20294;-76
2022/11/08 20:43:41;;;;;;;25.50;17.83;;;;;;;10.82;100.00;63111.41;5125168;28;20233;-76
2022/11/08 20:46:11;;;;;;;24.13;16.90;;;;;;;10.81;100.00;63112.94;5126612;28;20203;-76
2022/11/08 20:48:39;;;;;;;24.30;17.45;;;;;;;10.80;100.00;63111.38;5125539;28;20215;-76
2022/11/08 20:51:07;;;;;;;26.83;18.70;;;;;;;10.81;100.00;63115.47;5116887;28;20391;-77
2022/11/08 20:53:35;;;;;;;30.60;17.75;;;;;;;10.79;100.00;63110.88;5124740;28;20386;-77
2022/11/08 20:56:03;;;;;;;25.60;16.88;;;;;;;10.80;100.00;63111.38;5114619;28;20208;-76
2022/11/08 20:58:32;;;;;;;29.92;19.83;;;;;;;10.75;100.00;63106.72;5108389;28;20237;-76
2022/11/08 21:01:00;;;;;;;26.35;18.67;;;;;;;10.72;100.00;63100.53;5123603;28;20548;-77
2022/11/08 21:03:28;;;;;;;29.98;18.65;;;;;;;10.69;100.00;63097.97;5126174;28;20414;-80
2022/11/08 21:05:58;;;;;;;25.60;16.60;;;;;;;10.65;100.00;63095.88;5121600;28;20203;-76
2022/11/08 21:08:26;;;;;;;24.27;16.13;;;;;;;10.63;100.00;63091.75;5116062;28;20231;-78
2022/11/08 21:10:55;;;;;;;24.20;16.35;;;;;;;10.59;100.00;63089.66;5108350;28;20241;-77
2022/11/08 21:13:25;;;;;;;22.85;15.45;;;;;;;10.57;100.00;63090.63;5111748;28;20611;-78
2022/11/08 21:15:53;;;;;;;27.88;16.55;;;;;;;10.51;100.00;63083.91;5116658;28;20192;-75
2022/11/08 21:18:20;;;;;;;23.52;15.63;;;;;;;10.49;100.00;63074.72;5126998;28;20565;-76
2022/11/08 21:20:47;;;;;;;20.92;15.75;;;;;;;10.38;100.00;63066.41;5114054;28;20236;-77
2022/11/08 21:23:16;;;;;;;24.10;16.88;;;;;;;10.31;100.00;63056.63;5109624;28;20457;-78
2022/11/08 21:25:43;;;;;;;22.88;16.20;;;;;;;10.20;100.00;63050.31;5115922;28;20203;-76
2022/11/08 21:28:10;;;;;;;28.38;18.08;;;;;;;10.25;100.00;63052.44;5108458;28;20215;-76
2022/11/08 21:30:37;;;;;;;26.67;17.25;;;;;;;10.16;100.00;63043.13;5127800;28;20233;-78
2022/11/08 21:33:04;;;;;;;32.35;17.17;;;;;;;10.12;100.00;63044.06;5120727;28;20335;-78
2022/11/08 21:35:32;;;;;;;27.65;18.35;;;;;;;10.07;100.00;63031.78;5117339;28;20203;-76
2022/11/08 21:37:58;;;;;;;23.08;16.95;;;;;;;10.04;100.00;63033.75;5106218;28;20211;-77
2022/11/08 21:40:26;;;;;;;28.25;17.85;;;;;;;9.97;100.00;63026.00;5117687;28;20445;-77
2022/11/08 21:42:53;;;;;;;25.35;16.13;;;;;;;9.94;100.00;63022.91;5114813;28;20196;-76
2022/11/08 21:45:24;;;;;;;26.27;16.95;;;;;;;9.90;100.00;63016.19;5124287;28;20200;-79
2022/11/08 21:47:52;;;;;;;21.25;16.08;;;;;;;9.85;100.00;63013.56;5129357;28;20200;-77
2022/11/08 21:50:21;;;;;;;27.05;17.27;;;;;;;9.79;100.00;63007.88;5112926;28;20195;-78
2022/11/08 21:52:49;;;;;;;27.80;17.83;;;;;;;9.57;100.00;62985.13;5114281;28;20204;-78
2022/11/08 21:55:16;;;;;;;26.55;18.17;;;;;;;9.60;100.00;62990.78;5119596;28;20196;-77
2022/11/08 21:57:44;;;;;;;26.92;17.83;;;;;;;9.56;100.00;62984.09;5132507;28;20203;-79
2022/11/08 22:00:12;;;;;;;29.20;17.33;;;;;;;9.56;100.00;62981.56;5126963;27;20227;-77
2022/11/08 22:02:42;;;;;;;29.00;18.08;;;;;;;9.45;100.00;62975.28;5115195;28;20207;-79
2022/11/08 22:05:09;;;;;;;26.67;18.17;;;;;;;9.43;100.00;62968.13;5112444;28;20192;-78
2022/11/08 22:07:39;;;;;;;28.85;17.40;;;;;;;9.38;100.00;62962.94;5113750;28;20255;-78
2022/11/08 22:10:10;;;;;;;24.92;16.83;;;;;;;9.38;100.00;62968.03;5123258;28;20195;-79
2022/11/08 22:12:37;;;;;;;26.25;18.52;;;;;;;9.31;100.00;62956.22;5127723;28;20206;-77
2022/11/08 22:15:08;;;;;;;26.75;18.00;;;;;;;9.26;100.00;62956.16;5127795;28;20195;-77
2022/11/08 22:17:35;;;;;;;30.52;19.23;;;;;;;9.20;100.00;62946.88;5109798;28;20203;-77
2022/11/08 22:20:01;;;;;;;33.53;19.60;;;;;;;9.18;100.00;62942.78;5117099;28;20227;-78
2022/11/08 22:22:28;;;;;;;27.88;18.10;;;;;;;9.18;100.00;62947.38;5128477;28;20199;-76
2022/11/08 22:24:55;;;;;;;37.78;19.67;;;;;;;9.20;100.00;62944.34;5123157;28;20268;-76
2022/11/08 22:27:22;;;;;;;29.50;18.23;;;;;;;9.15;100.00;62936.63;5116928;28;20223;-76
2022/11/08 22:29:48;;;;;;;29.65;19.13;;;;;;;9.19;100.00;62948.91;5121926;28;20219;-76
2022/11/08 22:32:17;;;;;;;27.52;18.13;;;;;;;9.19;100.00;62943.31;5119101;28;20200;-77
2022/11/08 22:34:44;;;;;;;30.27;19.95;;;;;;;9.13;100.00;62937.63;5126314;27;20565;-76
2022/11/08 22:37:10;;;;;;;29.00;18.27;;;;;;;9.06;100.00;62935.47;5124857;28;20203;-76
2022/11/08 22:39:37;;;;;;;33.75;19.30;;;;;;;8.98;100.00;62924.13;5111711;28;20237;-77
2022/11/08 22:42:04;;;;;;;30.98;19.38;;;;;;;8.99;100.00;62925.69;5117306;28;20291;-76
2022/11/08 22:44:31;;;;;;;32.67;20.13;;;;;;;8.98;100.00;62924.66;5126637;28;20215;-77
2022/11/08 22:46:58;;;;;;;31.25;20.50;;;;;;;8.96;100.00;62924.59;5121397;28;20214;-76
2022/11/08 22:49:26;;;;;;;33.28;19.15;;;;;;;8.90;100.00;62913.34;5107343;27;20570;-76
2022/11/08 22:51:53;;;;;;;34.03;19.65;;;;;;;8.82;100.00;62907.59;5105756;28;20452;-76
2022/11/08 22:54:19;;;;;;;35.30;19.98;;;;;;;8.85;100.00;62908.16;5110091;28;20254;-75
2022/11/08 22:56:47;;;;;;;36.28;21.35;;;;;;;8.77;100.00;62902.94;5108619;28;20196;-76
2022/11/08 22:59:14;;;;;;;35.80;21.52;;;;;;;8.76;100.00;62899.38;5105758;28;20223;-76
2022/11/08 23:01:40;;;;;;;34.47;20.02;;;;;;;8.79;100.00;62907.03;5108311;28;20281;-77
2022/11/08 23:04:10;;;;;;;38.75;22.42;;;;;;;8.72;100.00;62897.25;5105098;28;20216;-77
2022/11/08 23:06:39;;;;;;;34.35;22.45;;;;;;;8.73;100.00;62898.31;5125008;28;20534;-76
2022/11/08 23:09:06;;;;;;;32.40;20.65;;;;;;;8.66;100.00;62889.03;5127135;28;20222;-77
2022/11/08 23:17:01;;;;;;;33.45;20.00;;;;;;;8.56;100.00;62878.72;5126640;28;20202;-77
2022/11/08 23:25:01;;;;;;;35.83;20.80;;;;;;;8.48;100.00;62869.94;5127224;28;20225;-77
2022/11/08 23:33:00;;;;;;;34.75;20.95;;;;;;;8.44;100.00;62868.34;5121270;28;20254;-79
2022/11/08 23:35:26;;;;;;;40.78;22.30;;;;;;;8.37;100.00;62863.66;5125101;28;20195;-77
2022/11/08 23:37:55;;;;;;;33.33;21.90;;;;;;;8.35;100.00;62859.03;5116045;28;20196;-76
2022/11/08 23:45:53;;;;;;;33.85;21.70;;;;;;;8.41;100.00;62865.25;5113693;28;21424;-77
2022/11/08 23:48:20;;;;;;;30.95;20.35;;;;;;;8.41;100.00;62862.69;5123562;28;20223;-76
2022/11/08 23:50:48;;;;;;;34.05;22.02;;;;;;;8.38;100.00;62862.66;5114640;28;20199;-76
2022/11/08 23:53:17;;;;;;;33.53;21.50;;;;;;;8.33;100.00;62849.91;5122222;28;20249;-76
2022/11/08 23:55:43;;;;;;;36.95;22.67;;;;;;;8.31;100.00;62854.91;5107690;28;20389;-76
2022/11/08 23:58:11;;;;;;;30.50;20.75;;;;;;;8.35;100.00;62859.03;5103557;28;20510;-75
